sensor_id;sensor_type;location;lat;lon;timestamp;temperature;humidity
24446;DHT22;13347;50.984;5.822;2024-01-07T00:00:49;2.00;99.90
24446;DHT22;13347;50.984;5.822;2024-01-07T00:03:18;2.00;99.90
24446;DHT22;13347;50.984;5.822;2024-01-07T00:05:44;2.00;99.90
24446;DHT22;13347;50.984;5.822;2024-01-07T00:08:10;2.10;99.90
24446;DHT22;13347;50.984;5.822;2024-01-07T00:10:37;2.00;99.90
24446;DHT22;13347;50.984;5.822;2024-01-07T00:13:04;2.00;99.90
24446;DHT22;13347;50.984;5.822;2024-01-07T00:15:31;2.00;99.90
24446;DHT22;13347;50.984;5.822;2024-01-07T00:17:58;2.00;99.90
24446;DHT22;13347;50.984;5.822;2024-01-07T00:20:26;2.10;99.90
24446;DHT22;13347;50.984;5.822;2024-01-07T00:22:53;2.10;99.90
24446;DHT22;13347;50.984;5.822;2024-01-07T00:25:21;2.10;99.90
24446;DHT22;13347;50.984;5.822;2024-01-07T00:27:48;2.10;99.90
24446;DHT22;13347;50.984;5.822;2024-01-07T00:30:16;2.10;99.90
24446;DHT22;13347;50.984;5.822;2024-01-07T00:32:43;2.10;99.90
24446;DHT22;13347;50.984;5.822;2024-01-07T00:35:10;2.10;99.90
24446;DHT22;13347;50.984;5.822;2024-01-07T00:37:39;2.00;99.90
24446;DHT22;13347;50.984;5.822;2024-01-07T00:40:06;2.10;99.90
24446;DHT22;13347;50.984;5.822;2024-01-07T00:42:33;2.10;99.90
24446;DHT22;13347;50.984;5.822;2024-01-07T00:45:00;2.00;99.90
24446;DHT22;13347;50.984;5.822;2024-01-07T00:47:28;2.10;99.90
24446;DHT22;13347;50.984;5.822;2024-01-07T00:49:55;2.10;99.90
24446;DHT22;13347;50.984;5.822;2024-01-07T00:52:22;2.10;99.90
24446;DHT22;13347;50.984;5.822;2024-01-07T00:54:50;2.10;99.90
24446;DHT22;13347;50.984;5.822;2024-01-07T00:57:17;2.10;99.90
24446;DHT22;13347;50.984;5.822;2024-01-07T00:59:44;2.10;99.90
24446;DHT22;13347;50.984;5.822;2024-01-07T01:02:11;2.20;99.90
24446;DHT22;13347;50.984;5.822;2024-01-07T01:04:38;2.20;99.90
24446;DHT22;13347;50.984;5.822;2024-01-07T01:07:05;2.20;99.90
24446;DHT22;13347;50.984;5.822;2024-01-07T01:09:33;2.10;99.90
24446;DHT22;13347;50.984;5.822;2024-01-07T01:12:01;2.10;99.90
24446;DHT22;13347;50.984;5.822;2024-01-07T01:14:28;2.10;99.90
24446;DHT22;13347;50.984;5.822;2024-01-07T01:16:55;2.20;99.90
24446;DHT22;13347;50.984;5.822;2024-01-07T01:19:23;2.20;99.90
24446;DHT22;13347;50.984;5.822;2024-01-07T01:21:50;2.20;99.90
24446;DHT22;13347;50.984;5.822;2024-01-07T01:24:17;2.20;99.90
24446;DHT22;13347;50.984;5.822;2024-01-07T01:26:44;2.20;99.90
24446;DHT22;13347;50.984;5.822;2024-01-07T01:29:12;2.30;99.90
24446;DHT22;13347;50.984;5.822;2024-01-07T01:31:39;2.20;99.90
24446;DHT22;13347;50.984;5.822;2024-01-07T01:34:06;2.30;99.90
24446;DHT22;13347;50.984;5.822;2024-01-07T01:36:33;2.20;99.90
24446;DHT22;13347;50.984;5.822;2024-01-07T01:39:00;2.20;99.90
24446;DHT22;13347;50.984;5.822;2024-01-07T01:41:28;2.20;99.90
24446;DHT22;13347;50.984;5.822;2024-01-07T01:43:57;2.10;99.90
24446;DHT22;13347;50.984;5.822;2024-01-07T01:46:26;2.20;99.90
24446;DHT22;13347;50.984;5.822;2024-01-07T01:48:52;2.20;99.90
24446;DHT22;13347;50.984;5.822;2024-01-07T01:51:19;2.10;99.90
24446;DHT22;13347;50.984;5.822;2024-01-07T01:53:47;2.10;99.90
24446;DHT22;13347;50.984;5.822;2024-01-07T01:56:14;2.10;99.90
24446;DHT22;13347;50.984;5.822;2024-01-07T01:58:41;2.10;99.90
24446;DHT22;13347;50.984;5.822;2024-01-07T02:01:09;2.10;99.90
24446;DHT22;13347;50.984;5.822;2024-01-07T02:03:37;2.10;99.90
24446;DHT22;13347;50.984;5.822;2024-01-07T02:06:04;2.10;99.90
24446;DHT22;13347;50.984;5.822;2024-01-07T02:08:32;2.10;99.90
24446;DHT22;13347;50.984;5.822;2024-01-07T02:10:59;2.10;99.90
24446;DHT22;13347;50.984;5.822;2024-01-07T02:13:40;2.10;99.90
24446;DHT22;13347;50.984;5.822;2024-01-07T02:16:07;2.10;99.90
24446;DHT22;13347;50.984;5.822;2024-01-07T02:18:34;2.10;99.90
24446;DHT22;13347;50.984;5.822;2024-01-07T02:21:03;2.00;99.90
24446;DHT22;13347;50.984;5.822;2024-01-07T02:23:30;1.90;99.90
24446;DHT22;13347;50.984;5.822;2024-01-07T02:25:58;2.00;99.90
24446;DHT22;13347;50.984;5.822;2024-01-07T02:28:25;2.00;99.90
24446;DHT22;13347;50.984;5.822;2024-01-07T02:30:52;1.90;99.90
24446;DHT22;13347;50.984;5.822;2024-01-07T02:33:19;2.00;99.90
24446;DHT22;13347;50.984;5.822;2024-01-07T02:35:46;2.00;99.90
24446;DHT22;13347;50.984;5.822;2024-01-07T02:38:13;2.00;99.90
24446;DHT22;13347;50.984;5.822;2024-01-07T02:40:40;2.00;99.90
24446;DHT22;13347;50.984;5.822;2024-01-07T02:43:08;2.00;99.90
24446;DHT22;13347;50.984;5.822;2024-01-07T02:45:35;2.00;99.90
24446;DHT22;13347;50.984;5.822;2024-01-07T02:48:02;2.10;99.90
24446;DHT22;13347;50.984;5.822;2024-01-07T02:50:29;2.00;99.90
24446;DHT22;13347;50.984;5.822;2024-01-07T02:52:56;2.10;99.90
24446;DHT22;13347;50.984;5.822;2024-01-07T02:55:23;2.10;99.90
24446;DHT22;13347;50.984;5.822;2024-01-07T02:57:50;2.20;99.90
24446;DHT22;13347;50.984;5.822;2024-01-07T03:00:18;2.10;99.90
24446;DHT22;13347;50.984;5.822;2024-01-07T03:02:45;2.20;99.90
24446;DHT22;13347;50.984;5.822;2024-01-07T03:05:12;2.10;99.90
24446;DHT22;13347;50.984;5.822;2024-01-07T03:07:39;2.10;99.90
24446;DHT22;13347;50.984;5.822;2024-01-07T03:10:07;2.10;99.90
24446;DHT22;13347;50.984;5.822;2024-01-07T03:12:33;2.20;99.90
24446;DHT22;13347;50.984;5.822;2024-01-07T03:15:00;2.20;99.90
24446;DHT22;13347;50.984;5.822;2024-01-07T03:17:29;2.20;99.90
24446;DHT22;13347;50.984;5.822;2024-01-07T03:19:56;2.20;99.90
24446;DHT22;13347;50.984;5.822;2024-01-07T03:22:23;2.20;99.90
24446;DHT22;13347;50.984;5.822;2024-01-07T03:24:50;2.20;99.90
24446;DHT22;13347;50.984;5.822;2024-01-07T03:27:17;2.30;99.90
24446;DHT22;13347;50.984;5.822;2024-01-07T03:29:44;2.20;99.90
24446;DHT22;13347;50.984;5.822;2024-01-07T03:32:11;2.30;99.90
24446;DHT22;13347;50.984;5.822;2024-01-07T03:34:39;2.30;99.90
24446;DHT22;13347;50.984;5.822;2024-01-07T03:37:06;2.20;99.90
24446;DHT22;13347;50.984;5.822;2024-01-07T03:39:33;2.20;99.90
24446;DHT22;13347;50.984;5.822;2024-01-07T03:42:01;2.20;99.90
24446;DHT22;13347;50.984;5.822;2024-01-07T03:44:28;2.30;99.90
24446;DHT22;13347;50.984;5.822;2024-01-07T03:46:55;2.30;99.90
24446;DHT22;13347;50.984;5.822;2024-01-07T03:49:22;2.20;99.90
24446;DHT22;13347;50.984;5.822;2024-01-07T03:51:50;2.20;99.90
24446;DHT22;13347;50.984;5.822;2024-01-07T03:54:17;2.20;99.90
24446;DHT22;13347;50.984;5.822;2024-01-07T03:56:44;2.30;99.90
24446;DHT22;13347;50.984;5.822;2024-01-07T03:59:11;2.20;99.90
24446;DHT22;13347;50.984;5.822;2024-01-07T04:01:38;2.20;99.90
24446;DHT22;13347;50.984;5.822;2024-01-07T04:04:05;2.30;99.90
24446;DHT22;13347;50.984;5.822;2024-01-07T04:06:32;2.30;99.90
24446;DHT22;13347;50.984;5.822;2024-01-07T04:09:00;2.30;99.90
24446;DHT22;13347;50.984;5.822;2024-01-07T04:11:28;2.30;99.90
24446;DHT22;13347;50.984;5.822;2024-01-07T04:13:55;2.30;99.90
24446;DHT22;13347;50.984;5.822;2024-01-07T04:16:22;2.30;99.90
24446;DHT22;13347;50.984;5.822;2024-01-07T04:18:49;2.30;99.90
24446;DHT22;13347;50.984;5.822;2024-01-07T04:21:16;2.30;99.90
24446;DHT22;13347;50.984;5.822;2024-01-07T04:23:43;2.20;99.90
24446;DHT22;13347;50.984;5.822;2024-01-07T04:26:11;2.10;99.90
24446;DHT22;13347;50.984;5.822;2024-01-07T04:28:40;2.10;99.90
24446;DHT22;13347;50.984;5.822;2024-01-07T04:31:07;2.10;99.90
24446;DHT22;13347;50.984;5.822;2024-01-07T04:33:34;2.10;99.90
24446;DHT22;13347;50.984;5.822;2024-01-07T04:36:01;2.10;99.90
24446;DHT22;13347;50.984;5.822;2024-01-07T04:38:29;2.10;99.90
24446;DHT22;13347;50.984;5.822;2024-01-07T04:40:56;2.10;99.90
24446;DHT22;13347;50.984;5.822;2024-01-07T04:43:24;2.10;99.90
24446;DHT22;13347;50.984;5.822;2024-01-07T04:45:51;2.20;99.90
24446;DHT22;13347;50.984;5.822;2024-01-07T04:48:18;2.20;99.90
24446;DHT22;13347;50.984;5.822;2024-01-07T04:50:45;2.20;99.90
24446;DHT22;13347;50.984;5.822;2024-01-07T04:53:12;2.10;99.90
24446;DHT22;13347;50.984;5.822;2024-01-07T04:55:39;2.10;99.90
24446;DHT22;13347;50.984;5.822;2024-01-07T04:58:05;2.10;99.90
24446;DHT22;13347;50.984;5.822;2024-01-07T05:00:34;2.20;99.90
24446;DHT22;13347;50.984;5.822;2024-01-07T05:03:00;2.20;99.90
24446;DHT22;13347;50.984;5.822;2024-01-07T05:05:27;2.10;99.90
24446;DHT22;13347;50.984;5.822;2024-01-07T05:07:54;2.10;99.90
24446;DHT22;13347;50.984;5.822;2024-01-07T05:10:21;2.10;99.90
24446;DHT22;13347;50.984;5.822;2024-01-07T05:12:48;2.10;99.90
24446;DHT22;13347;50.984;5.822;2024-01-07T05:15:15;2.10;99.90
24446;DHT22;13347;50.984;5.822;2024-01-07T05:17:43;2.10;99.90
24446;DHT22;13347;50.984;5.822;2024-01-07T05:20:10;2.00;99.90
24446;DHT22;13347;50.984;5.822;2024-01-07T05:22:37;2.00;99.90
24446;DHT22;13347;50.984;5.822;2024-01-07T05:25:04;2.00;99.90
24446;DHT22;13347;50.984;5.822;2024-01-07T05:27:31;2.00;99.90
24446;DHT22;13347;50.984;5.822;2024-01-07T05:29:58;2.00;99.90
24446;DHT22;13347;50.984;5.822;2024-01-07T05:32:25;2.00;99.90
24446;DHT22;13347;50.984;5.822;2024-01-07T05:34:54;2.00;99.90
24446;DHT22;13347;50.984;5.822;2024-01-07T05:37:21;1.90;99.90
24446;DHT22;13347;50.984;5.822;2024-01-07T05:39:47;1.90;99.90
24446;DHT22;13347;50.984;5.822;2024-01-07T05:42:14;2.00;99.90
24446;DHT22;13347;50.984;5.822;2024-01-07T05:44:41;2.00;99.90
24446;DHT22;13347;50.984;5.822;2024-01-07T05:47:08;2.10;99.90
24446;DHT22;13347;50.984;5.822;2024-01-07T05:49:35;2.00;99.90
24446;DHT22;13347;50.984;5.822;2024-01-07T05:52:04;1.90;99.90
24446;DHT22;13347;50.984;5.822;2024-01-07T05:54:31;1.90;99.90
24446;DHT22;13347;50.984;5.822;2024-01-07T05:56:58;2.00;99.90
24446;DHT22;13347;50.984;5.822;2024-01-07T05:59:25;1.90;99.90
24446;DHT22;13347;50.984;5.822;2024-01-07T06:01:57;1.90;99.90
24446;DHT22;13347;50.984;5.822;2024-01-07T06:04:24;1.90;99.90
24446;DHT22;13347;50.984;5.822;2024-01-07T06:06:51;2.00;99.90
24446;DHT22;13347;50.984;5.822;2024-01-07T06:09:19;2.00;99.90
24446;DHT22;13347;50.984;5.822;2024-01-07T06:11:46;2.00;99.90
24446;DHT22;13347;50.984;5.822;2024-01-07T06:14:13;2.00;99.90
24446;DHT22;13347;50.984;5.822;2024-01-07T06:16:40;2.00;99.90
24446;DHT22;13347;50.984;5.822;2024-01-07T06:19:08;2.00;99.90
24446;DHT22;13347;50.984;5.822;2024-01-07T06:21:35;1.90;99.90
24446;DHT22;13347;50.984;5.822;2024-01-07T06:24:02;1.80;99.90
24446;DHT22;13347;50.984;5.822;2024-01-07T06:26:31;1.80;99.90
24446;DHT22;13347;50.984;5.822;2024-01-07T06:28:58;1.80;99.90
24446;DHT22;13347;50.984;5.822;2024-01-07T06:31:25;1.80;99.90
24446;DHT22;13347;50.984;5.822;2024-01-07T06:33:52;1.80;99.90
24446;DHT22;13347;50.984;5.822;2024-01-07T06:36:21;1.80;99.90
24446;DHT22;13347;50.984;5.822;2024-01-07T06:38:48;1.80;99.90
24446;DHT22;13347;50.984;5.822;2024-01-07T06:41:15;1.80;99.90
24446;DHT22;13347;50.984;5.822;2024-01-07T06:43:43;1.80;99.90
24446;DHT22;13347;50.984;5.822;2024-01-07T06:46:10;1.80;99.90
24446;DHT22;13347;50.984;5.822;2024-01-07T06:48:37;1.90;99.90
24446;DHT22;13347;50.984;5.822;2024-01-07T06:51:04;1.80;99.90
24446;DHT22;13347;50.984;5.822;2024-01-07T06:53:31;1.90;99.90
24446;DHT22;13347;50.984;5.822;2024-01-07T06:55:57;1.90;99.90
24446;DHT22;13347;50.984;5.822;2024-01-07T06:58:24;1.90;99.90
24446;DHT22;13347;50.984;5.822;2024-01-07T07:00:53;1.90;99.90
24446;DHT22;13347;50.984;5.822;2024-01-07T07:03:19;1.80;99.90
24446;DHT22;13347;50.984;5.822;2024-01-07T07:05:46;1.80;99.90
24446;DHT22;13347;50.984;5.822;2024-01-07T07:08:13;1.80;99.90
24446;DHT22;13347;50.984;5.822;2024-01-07T07:10:40;1.80;99.90
24446;DHT22;13347;50.984;5.822;2024-01-07T07:13:07;1.70;99.90
24446;DHT22;13347;50.984;5.822;2024-01-07T07:15:34;1.80;99.90
24446;DHT22;13347;50.984;5.822;2024-01-07T07:18:03;1.80;99.90
24446;DHT22;13347;50.984;5.822;2024-01-07T07:20:30;1.70;99.90
24446;DHT22;13347;50.984;5.822;2024-01-07T07:22:57;1.70;99.90
24446;DHT22;13347;50.984;5.822;2024-01-07T07:25:23;1.70;99.90
24446;DHT22;13347;50.984;5.822;2024-01-07T07:27:50;1.70;99.90
24446;DHT22;13347;50.984;5.822;2024-01-07T07:30:17;1.70;99.90
24446;DHT22;13347;50.984;5.822;2024-01-07T07:32:44;1.70;99.90
24446;DHT22;13347;50.984;5.822;2024-01-07T07:35:13;1.70;99.90
24446;DHT22;13347;50.984;5.822;2024-01-07T07:37:40;1.50;99.90
24446;DHT22;13347;50.984;5.822;2024-01-07T07:40:07;1.50;99.90
24446;DHT22;13347;50.984;5.822;2024-01-07T07:42:34;1.50;99.90
24446;DHT22;13347;50.984;5.822;2024-01-07T07:45:01;1.50;99.90
24446;DHT22;13347;50.984;5.822;2024-01-07T07:47:28;1.40;99.90
24446;DHT22;13347;50.984;5.822;2024-01-07T07:49:55;1.40;99.90
24446;DHT22;13347;50.984;5.822;2024-01-07T07:52:23;1.40;99.90
24446;DHT22;13347;50.984;5.822;2024-01-07T07:54:51;1.40;99.90
24446;DHT22;13347;50.984;5.822;2024-01-07T07:57:18;1.40;99.90
24446;DHT22;13347;50.984;5.822;2024-01-07T07:59:46;1.40;99.90
24446;DHT22;13347;50.984;5.822;2024-01-07T08:02:13;1.40;99.90
24446;DHT22;13347;50.984;5.822;2024-01-07T08:04:40;1.40;99.90
24446;DHT22;13347;50.984;5.822;2024-01-07T08:07:08;1.40;99.90
24446;DHT22;13347;50.984;5.822;2024-01-07T08:09:36;1.30;99.90
24446;DHT22;13347;50.984;5.822;2024-01-07T08:12:03;1.40;99.90
24446;DHT22;13347;50.984;5.822;2024-01-07T08:14:31;1.40;99.90
24446;DHT22;13347;50.984;5.822;2024-01-07T08:16:58;1.40;99.90
24446;DHT22;13347;50.984;5.822;2024-01-07T08:19:24;1.30;99.90
24446;DHT22;13347;50.984;5.822;2024-01-07T08:21:51;1.40;99.90
24446;DHT22;13347;50.984;5.822;2024-01-07T08:24:19;1.40;99.90
24446;DHT22;13347;50.984;5.822;2024-01-07T08:26:47;1.40;99.90
24446;DHT22;13347;50.984;5.822;2024-01-07T08:29:14;1.40;99.90
24446;DHT22;13347;50.984;5.822;2024-01-07T08:31:41;1.40;99.90
24446;DHT22;13347;50.984;5.822;2024-01-07T08:34:08;1.40;99.90
24446;DHT22;13347;50.984;5.822;2024-01-07T08:36:35;1.40;99.90
24446;DHT22;13347;50.984;5.822;2024-01-07T08:39:03;1.40;99.90
24446;DHT22;13347;50.984;5.822;2024-01-07T08:41:30;1.40;99.90
24446;DHT22;13347;50.984;5.822;2024-01-07T08:43:58;1.40;99.90
24446;DHT22;13347;50.984;5.822;2024-01-07T08:46:25;1.30;99.90
24446;DHT22;13347;50.984;5.822;2024-01-07T08:48:52;1.30;99.90
24446;DHT22;13347;50.984;5.822;2024-01-07T08:51:19;1.30;99.90
24446;DHT22;13347;50.984;5.822;2024-01-07T08:53:46;1.40;99.90
24446;DHT22;13347;50.984;5.822;2024-01-07T08:56:13;1.30;99.90
24446;DHT22;13347;50.984;5.822;2024-01-07T08:58:40;1.30;99.90
24446;DHT22;13347;50.984;5.822;2024-01-07T09:01:08;1.30;99.90
24446;DHT22;13347;50.984;5.822;2024-01-07T09:03:35;1.30;99.90
24446;DHT22;13347;50.984;5.822;2024-01-07T09:06:02;1.30;99.90
24446;DHT22;13347;50.984;5.822;2024-01-07T09:08:29;1.30;99.90
24446;DHT22;13347;50.984;5.822;2024-01-07T09:10:56;1.30;99.90
24446;DHT22;13347;50.984;5.822;2024-01-07T09:13:25;1.30;99.90
24446;DHT22;13347;50.984;5.822;2024-01-07T09:15:52;1.30;99.90
24446;DHT22;13347;50.984;5.822;2024-01-07T09:18:21;1.30;99.90
24446;DHT22;13347;50.984;5.822;2024-01-07T09:20:48;1.40;99.90
24446;DHT22;13347;50.984;5.822;2024-01-07T09:23:15;1.30;99.90
24446;DHT22;13347;50.984;5.822;2024-01-07T09:25:42;1.30;99.90
24446;DHT22;13347;50.984;5.822;2024-01-07T09:28:08;1.40;99.90
24446;DHT22;13347;50.984;5.822;2024-01-07T09:30:35;1.40;99.90
24446;DHT22;13347;50.984;5.822;2024-01-07T09:33:02;1.30;99.90
24446;DHT22;13347;50.984;5.822;2024-01-07T09:35:31;1.30;99.90
24446;DHT22;13347;50.984;5.822;2024-01-07T09:37:57;1.30;99.90
24446;DHT22;13347;50.984;5.822;2024-01-07T09:40:24;1.30;99.90
24446;DHT22;13347;50.984;5.822;2024-01-07T09:42:51;1.30;99.90
24446;DHT22;13347;50.984;5.822;2024-01-07T09:45:18;1.30;99.90
24446;DHT22;13347;50.984;5.822;2024-01-07T09:47:45;1.30;99.90
24446;DHT22;13347;50.984;5.822;2024-01-07T09:50:12;1.20;99.90
24446;DHT22;13347;50.984;5.822;2024-01-07T09:52:43;1.20;99.90
24446;DHT22;13347;50.984;5.822;2024-01-07T09:55:11;1.10;99.90
24446;DHT22;13347;50.984;5.822;2024-01-07T09:57:40;1.10;99.90
24446;DHT22;13347;50.984;5.822;2024-01-07T10:00:07;1.20;99.90
24446;DHT22;13347;50.984;5.822;2024-01-07T10:02:35;1.00;99.90
24446;DHT22;13347;50.984;5.822;2024-01-07T10:05:02;1.00;99.90
24446;DHT22;13347;50.984;5.822;2024-01-07T10:07:29;1.00;99.90
24446;DHT22;13347;50.984;5.822;2024-01-07T10:09:57;1.10;99.90
24446;DHT22;13347;50.984;5.822;2024-01-07T10:12:24;1.10;99.90
24446;DHT22;13347;50.984;5.822;2024-01-07T10:14:52;1.00;99.90
24446;DHT22;13347;50.984;5.822;2024-01-07T10:17:18;1.00;99.90
24446;DHT22;13347;50.984;5.822;2024-01-07T10:19:46;1.00;99.90
24446;DHT22;13347;50.984;5.822;2024-01-07T10:22:14;1.10;99.90
24446;DHT22;13347;50.984;5.822;2024-01-07T10:24:41;1.00;99.90
24446;DHT22;13347;50.984;5.822;2024-01-07T10:27:10;1.10;99.90
24446;DHT22;13347;50.984;5.822;2024-01-07T10:29:38;1.00;99.90
24446;DHT22;13347;50.984;5.822;2024-01-07T10:32:05;1.10;99.90
24446;DHT22;13347;50.984;5.822;2024-01-07T10:34:33;1.10;99.90
24446;DHT22;13347;50.984;5.822;2024-01-07T10:37:00;1.10;99.90
24446;DHT22;13347;50.984;5.822;2024-01-07T10:39:28;1.20;99.90
24446;DHT22;13347;50.984;5.822;2024-01-07T10:41:56;1.10;99.90
24446;DHT22;13347;50.984;5.822;2024-01-07T10:44:26;1.20;99.90
24446;DHT22;13347;50.984;5.822;2024-01-07T10:46:54;1.20;99.90
24446;DHT22;13347;50.984;5.822;2024-01-07T10:49:22;1.20;99.90
24446;DHT22;13347;50.984;5.822;2024-01-07T10:51:50;1.20;99.90
24446;DHT22;13347;50.984;5.822;2024-01-07T10:56:50;1.20;99.90
24446;DHT22;13347;50.984;5.822;2024-01-07T10:59:23;1.10;99.90
24446;DHT22;13347;50.984;5.822;2024-01-07T11:01:51;1.10;99.90
24446;DHT22;13347;50.984;5.822;2024-01-07T11:04:20;1.10;99.90
24446;DHT22;13347;50.984;5.822;2024-01-07T11:06:51;1.00;99.90
24446;DHT22;13347;50.984;5.822;2024-01-07T11:09:23;1.00;99.90
24446;DHT22;13347;50.984;5.822;2024-01-07T11:11:54;1.10;99.90
24446;DHT22;13347;50.984;5.822;2024-01-07T11:14:34;1.10;99.90
24446;DHT22;13347;50.984;5.822;2024-01-07T11:17:02;1.10;99.90
24446;DHT22;13347;50.984;5.822;2024-01-07T11:19:29;1.20;99.90
24446;DHT22;13347;50.984;5.822;2024-01-07T11:24:38;1.10;99.90
24446;DHT22;13347;50.984;5.822;2024-01-07T11:27:08;1.10;99.90
24446;DHT22;13347;50.984;5.822;2024-01-07T11:29:35;1.10;99.90
24446;DHT22;13347;50.984;5.822;2024-01-07T11:32:03;1.20;99.90
24446;DHT22;13347;50.984;5.822;2024-01-07T11:34:38;1.10;99.90
24446;DHT22;13347;50.984;5.822;2024-01-07T11:37:07;1.10;99.90
24446;DHT22;13347;50.984;5.822;2024-01-07T11:39:34;1.10;99.90
24446;DHT22;13347;50.984;5.822;2024-01-07T11:42:02;1.10;99.90
24446;DHT22;13347;50.984;5.822;2024-01-07T11:44:30;1.10;99.90
24446;DHT22;13347;50.984;5.822;2024-01-07T11:46:59;1.10;99.90
24446;DHT22;13347;50.984;5.822;2024-01-07T11:49:28;1.10;99.90
24446;DHT22;13347;50.984;5.822;2024-01-07T11:51:54;1.20;99.90
24446;DHT22;13347;50.984;5.822;2024-01-07T11:54:21;1.20;99.90
24446;DHT22;13347;50.984;5.822;2024-01-07T11:56:48;1.20;99.90
24446;DHT22;13347;50.984;5.822;2024-01-07T11:59:15;1.20;99.90
24446;DHT22;13347;50.984;5.822;2024-01-07T12:01:42;1.20;99.90
24446;DHT22;13347;50.984;5.822;2024-01-07T12:04:09;1.20;99.90
24446;DHT22;13347;50.984;5.822;2024-01-07T12:06:39;1.20;99.90
24446;DHT22;13347;50.984;5.822;2024-01-07T12:09:05;1.20;99.90
24446;DHT22;13347;50.984;5.822;2024-01-07T12:11:33;1.20;99.90
24446;DHT22;13347;50.984;5.822;2024-01-07T12:14:00;1.30;99.90
24446;DHT22;13347;50.984;5.822;2024-01-07T12:16:27;1.30;99.90
24446;DHT22;13347;50.984;5.822;2024-01-07T12:18:54;1.30;99.90
24446;DHT22;13347;50.984;5.822;2024-01-07T12:21:21;1.30;99.90
24446;DHT22;13347;50.984;5.822;2024-01-07T12:23:50;1.30;99.90
24446;DHT22;13347;50.984;5.822;2024-01-07T12:26:17;1.30;99.90
24446;DHT22;13347;50.984;5.822;2024-01-07T12:28:51;1.20;99.90
24446;DHT22;13347;50.984;5.822;2024-01-07T12:31:18;1.30;99.90
24446;DHT22;13347;50.984;5.822;2024-01-07T12:33:45;1.30;99.90
24446;DHT22;13347;50.984;5.822;2024-01-07T12:36:12;1.30;99.90
24446;DHT22;13347;50.984;5.822;2024-01-07T12:38:40;1.30;99.90
24446;DHT22;13347;50.984;5.822;2024-01-07T12:41:08;1.40;99.90
24446;DHT22;13347;50.984;5.822;2024-01-07T12:43:36;1.30;99.90
24446;DHT22;13347;50.984;5.822;2024-01-07T12:46:03;1.30;99.90
24446;DHT22;13347;50.984;5.822;2024-01-07T12:48:31;1.40;99.90
24446;DHT22;13347;50.984;5.822;2024-01-07T12:50:57;1.30;99.90
24446;DHT22;13347;50.984;5.822;2024-01-07T12:53:24;1.30;99.90
24446;DHT22;13347;50.984;5.822;2024-01-07T12:55:52;1.30;92.10
24446;DHT22;13347;50.984;5.822;2024-01-07T12:58:20;1.30;62.20
24446;DHT22;13347;50.984;5.822;2024-01-07T13:00:47;1.30;61.40
24446;DHT22;13347;50.984;5.822;2024-01-07T13:03:14;1.30;60.70
24446;DHT22;13347;50.984;5.822;2024-01-07T13:05:43;1.30;54.40
24446;DHT22;13347;50.984;5.822;2024-01-07T13:08:11;1.30;17.00
24446;DHT22;13347;50.984;5.822;2024-01-07T13:10:38;1.20;1.00
24446;DHT22;13347;50.984;5.822;2024-01-07T13:13:05;1.30;1.00
24446;DHT22;13347;50.984;5.822;2024-01-07T13:15:34;1.30;1.00
24446;DHT22;13347;50.984;5.822;2024-01-07T13:18:01;1.40;18.10
24446;DHT22;13347;50.984;5.822;2024-01-07T13:20:28;1.50;1.00
24446;DHT22;13347;50.984;5.822;2024-01-07T13:22:54;1.30;1.00
24446;DHT22;13347;50.984;5.822;2024-01-07T13:25:21;1.40;1.00
24446;DHT22;13347;50.984;5.822;2024-01-07T13:27:48;1.40;1.00
24446;DHT22;13347;50.984;5.822;2024-01-07T13:30:16;1.30;1.00
24446;DHT22;13347;50.984;5.822;2024-01-07T13:32:44;1.30;1.00
24446;DHT22;13347;50.984;5.822;2024-01-07T13:35:11;1.20;1.00
24446;DHT22;13347;50.984;5.822;2024-01-07T13:37:38;1.20;1.00
24446;DHT22;13347;50.984;5.822;2024-01-07T13:40:07;1.20;1.00
24446;DHT22;13347;50.984;5.822;2024-01-07T13:42:36;1.20;1.00
24446;DHT22;13347;50.984;5.822;2024-01-07T13:45:03;1.20;1.00
24446;DHT22;13347;50.984;5.822;2024-01-07T13:47:30;1.20;1.00
24446;DHT22;13347;50.984;5.822;2024-01-07T13:49:58;1.20;1.00
24446;DHT22;13347;50.984;5.822;2024-01-07T13:52:25;1.10;1.00
24446;DHT22;13347;50.984;5.822;2024-01-07T13:54:55;1.10;1.00
24446;DHT22;13347;50.984;5.822;2024-01-07T13:57:22;1.10;1.00
24446;DHT22;13347;50.984;5.822;2024-01-07T13:59:49;1.10;1.00
24446;DHT22;13347;50.984;5.822;2024-01-07T14:02:16;1.00;1.00
24446;DHT22;13347;50.984;5.822;2024-01-07T14:04:44;1.00;1.00
24446;DHT22;13347;50.984;5.822;2024-01-07T14:07:13;1.00;1.00
24446;DHT22;13347;50.984;5.822;2024-01-07T14:09:40;1.00;1.00
24446;DHT22;13347;50.984;5.822;2024-01-07T14:12:07;0.90;1.00
24446;DHT22;13347;50.984;5.822;2024-01-07T14:14:34;0.90;99.90
24446;DHT22;13347;50.984;5.822;2024-01-07T14:17:02;0.80;99.90
24446;DHT22;13347;50.984;5.822;2024-01-07T14:19:29;0.90;99.90
24446;DHT22;13347;50.984;5.822;2024-01-07T14:21:56;0.80;99.90
24446;DHT22;13347;50.984;5.822;2024-01-07T14:24:24;0.80;1.00
24446;DHT22;13347;50.984;5.822;2024-01-07T14:26:51;0.80;1.00
24446;DHT22;13347;50.984;5.822;2024-01-07T14:29:18;0.70;1.00
24446;DHT22;13347;50.984;5.822;2024-01-07T14:31:45;0.80;1.00
24446;DHT22;13347;50.984;5.822;2024-01-07T14:34:13;0.80;1.00
24446;DHT22;13347;50.984;5.822;2024-01-07T14:36:40;0.70;1.00
24446;DHT22;13347;50.984;5.822;2024-01-07T14:39:08;0.70;1.00
24446;DHT22;13347;50.984;5.822;2024-01-07T14:41:37;0.80;99.90
24446;DHT22;13347;50.984;5.822;2024-01-07T14:44:04;0.70;1.00
24446;DHT22;13347;50.984;5.822;2024-01-07T14:46:31;0.70;1.00
24446;DHT22;13347;50.984;5.822;2024-01-07T14:48:57;0.70;99.90
24446;DHT22;13347;50.984;5.822;2024-01-07T14:51:24;0.70;1.00
24446;DHT22;13347;50.984;5.822;2024-01-07T14:53:51;0.70;1.00
24446;DHT22;13347;50.984;5.822;2024-01-07T14:56:18;0.70;1.00
24446;DHT22;13347;50.984;5.822;2024-01-07T14:58:46;0.80;1.00
24446;DHT22;13347;50.984;5.822;2024-01-07T15:01:13;0.70;1.00
24446;DHT22;13347;50.984;5.822;2024-01-07T15:03:40;0.70;1.00
24446;DHT22;13347;50.984;5.822;2024-01-07T15:06:07;0.70;1.00
24446;DHT22;13347;50.984;5.822;2024-01-07T15:08:36;0.60;1.00
24446;DHT22;13347;50.984;5.822;2024-01-07T15:11:03;0.50;1.00
24446;DHT22;13347;50.984;5.822;2024-01-07T15:13:30;0.50;1.00
24446;DHT22;13347;50.984;5.822;2024-01-07T15:15:58;0.40;1.00
24446;DHT22;13347;50.984;5.822;2024-01-07T15:18:25;0.40;1.00
24446;DHT22;13347;50.984;5.822;2024-01-07T15:20:52;0.30;99.90
24446;DHT22;13347;50.984;5.822;2024-01-07T15:23:19;0.30;99.90
24446;DHT22;13347;50.984;5.822;2024-01-07T15:25:46;0.30;99.90
24446;DHT22;13347;50.984;5.822;2024-01-07T15:28:12;0.30;99.90
24446;DHT22;13347;50.984;5.822;2024-01-07T15:30:39;0.40;1.00
24446;DHT22;13347;50.984;5.822;2024-01-07T15:33:08;0.40;99.90
24446;DHT22;13347;50.984;5.822;2024-01-07T15:35:35;0.30;1.00
24446;DHT22;13347;50.984;5.822;2024-01-07T15:38:02;0.30;1.00
24446;DHT22;13347;50.984;5.822;2024-01-07T15:40:28;0.20;1.00
24446;DHT22;13347;50.984;5.822;2024-01-07T15:42:56;0.20;1.00
24446;DHT22;13347;50.984;5.822;2024-01-07T15:45:23;0.20;99.90
24446;DHT22;13347;50.984;5.822;2024-01-07T15:47:50;0.20;99.90
24446;DHT22;13347;50.984;5.822;2024-01-07T15:50:18;0.20;99.90
24446;DHT22;13347;50.984;5.822;2024-01-07T15:52:45;0.20;1.00